sensor_id;sensor_type;location;lat;lon;timestamp;temperature;humidity
39255;DHT22;24957;51.386;-2.352;2022-09-20T00:01:12;15.10;99.90
39255;DHT22;24957;51.386;-2.352;2022-09-20T00:03:42;15.00;99.90
39255;DHT22;24957;51.386;-2.352;2022-09-20T00:06:09;15.00;99.90
39255;DHT22;24957;51.386;-2.352;2022-09-20T00:08:35;15.10;99.90
39255;DHT22;24957;51.386;-2.352;2022-09-20T00:11:05;15.10;99.90
39255;DHT22;24957;51.386;-2.352;2022-09-20T00:13:31;15.10;99.90
39255;DHT22;24957;51.386;-2.352;2022-09-20T00:15:57;15.00;99.90
39255;DHT22;24957;51.386;-2.352;2022-09-20T00:18:23;15.10;99.90
39255;DHT22;24957;51.386;-2.352;2022-09-20T00:20:49;15.10;99.90
39255;DHT22;24957;51.386;-2.352;2022-09-20T00:23:15;15.10;99.90
39255;DHT22;24957;51.386;-2.352;2022-09-20T00:25:41;15.10;99.90
39255;DHT22;24957;51.386;-2.352;2022-09-20T00:28:07;15.10;99.90
39255;DHT22;24957;51.386;-2.352;2022-09-20T00:30:32;15.10;99.90
39255;DHT22;24957;51.386;-2.352;2022-09-20T00:32:58;15.00;99.90
39255;DHT22;24957;51.386;-2.352;2022-09-20T00:35:24;15.00;99.90
39255;DHT22;24957;51.386;-2.352;2022-09-20T00:37:49;15.00;99.90
39255;DHT22;24957;51.386;-2.352;2022-09-20T00:40:16;15.10;99.90
39255;DHT22;24957;51.386;-2.352;2022-09-20T00:42:41;15.00;99.90
39255;DHT22;24957;51.386;-2.352;2022-09-20T00:45:09;15.00;99.90
39255;DHT22;24957;51.386;-2.352;2022-09-20T00:47:40;15.00;99.90
39255;DHT22;24957;51.386;-2.352;2022-09-20T00:50:15;15.00;99.90
39255;DHT22;24957;51.386;-2.352;2022-09-20T00:52:43;15.10;99.90
39255;DHT22;24957;51.386;-2.352;2022-09-20T00:55:09;15.10;99.90
39255;DHT22;24957;51.386;-2.352;2022-09-20T00:57:35;15.10;99.90
39255;DHT22;24957;51.386;-2.352;2022-09-20T01:00:04;15.10;99.90
39255;DHT22;24957;51.386;-2.352;2022-09-20T01:02:30;15.10;99.90
39255;DHT22;24957;51.386;-2.352;2022-09-20T01:04:57;15.10;99.90
39255;DHT22;24957;51.386;-2.352;2022-09-20T01:07:23;15.10;99.90
39255;DHT22;24957;51.386;-2.352;2022-09-20T01:09:49;15.10;99.90
39255;DHT22;24957;51.386;-2.352;2022-09-20T01:12:18;15.10;99.90
39255;DHT22;24957;51.386;-2.352;2022-09-20T01:14:45;15.10;99.90
39255;DHT22;24957;51.386;-2.352;2022-09-20T01:17:11;15.00;99.90
39255;DHT22;24957;51.386;-2.352;2022-09-20T01:19:39;15.00;99.90
39255;DHT22;24957;51.386;-2.352;2022-09-20T01:22:11;15.00;99.90
39255;DHT22;24957;51.386;-2.352;2022-09-20T01:24:49;15.00;99.90
39255;DHT22;24957;51.386;-2.352;2022-09-20T01:29:56;15.00;99.90
39255;DHT22;24957;51.386;-2.352;2022-09-20T01:32:23;15.00;99.90
39255;DHT22;24957;51.386;-2.352;2022-09-20T01:34:54;15.00;99.90
39255;DHT22;24957;51.386;-2.352;2022-09-20T01:37:24;15.00;99.90
39255;DHT22;24957;51.386;-2.352;2022-09-20T01:42:19;15.00;99.90
39255;DHT22;24957;51.386;-2.352;2022-09-20T02:03:58;15.00;99.90
39255;DHT22;24957;51.386;-2.352;2022-09-20T02:09:20;14.90;99.90
39255;DHT22;24957;51.386;-2.352;2022-09-20T02:17:24;14.90;99.90
39255;DHT22;24957;51.386;-2.352;2022-09-20T02:19:49;14.90;99.90
39255;DHT22;24957;51.386;-2.352;2022-09-20T02:30:05;15.00;99.90
39255;DHT22;24957;51.386;-2.352;2022-09-20T02:35:23;15.00;99.90
39255;DHT22;24957;51.386;-2.352;2022-09-20T02:41:21;14.90;99.90
39255;DHT22;24957;51.386;-2.352;2022-09-20T02:43:24;14.80;99.90
39255;DHT22;24957;51.386;-2.352;2022-09-20T02:46:00;14.80;99.90
39255;DHT22;24957;51.386;-2.352;2022-09-20T02:48:30;14.60;99.90
39255;DHT22;24957;51.386;-2.352;2022-09-20T02:51:02;14.60;99.90
39255;DHT22;24957;51.386;-2.352;2022-09-20T02:56:17;14.60;99.90
39255;DHT22;24957;51.386;-2.352;2022-09-20T03:11:25;14.30;99.90
39255;DHT22;24957;51.386;-2.352;2022-09-20T03:24:38;14.10;99.90
39255;DHT22;24957;51.386;-2.352;2022-09-20T03:34:44;14.10;99.90
39255;DHT22;24957;51.386;-2.352;2022-09-20T03:37:22;14.00;99.90
39255;DHT22;24957;51.386;-2.352;2022-09-20T03:42:40;13.90;99.90
39255;DHT22;24957;51.386;-2.352;2022-09-20T03:58:33;13.30;99.90
39255;DHT22;24957;51.386;-2.352;2022-09-20T04:08:46;13.00;99.90
39255;DHT22;24957;51.386;-2.352;2022-09-20T04:14:02;12.80;99.90
39255;DHT22;24957;51.386;-2.352;2022-09-20T04:16:34;12.70;99.90
39255;DHT22;24957;51.386;-2.352;2022-09-20T04:21:53;12.80;99.90
39255;DHT22;24957;51.386;-2.352;2022-09-20T04:24:22;12.70;99.90
39255;DHT22;24957;51.386;-2.352;2022-09-20T04:26:56;12.60;99.90
39255;DHT22;24957;51.386;-2.352;2022-09-20T04:34:37;12.50;99.90
39255;DHT22;24957;51.386;-2.352;2022-09-20T04:37:26;12.40;99.90
39255;DHT22;24957;51.386;-2.352;2022-09-20T04:42:41;12.30;99.90
39255;DHT22;24957;51.386;-2.352;2022-09-20T04:50:47;12.10;99.90
39255;DHT22;24957;51.386;-2.352;2022-09-20T04:55:53;11.90;99.90
39255;DHT22;24957;51.386;-2.352;2022-09-20T05:00:56;11.90;99.90
39255;DHT22;24957;51.386;-2.352;2022-09-20T05:06:12;11.90;99.90
39255;DHT22;24957;51.386;-2.352;2022-09-20T05:19:14;11.80;99.90
39255;DHT22;24957;51.386;-2.352;2022-09-20T05:22:24;11.70;99.90
39255;DHT22;24957;51.386;-2.352;2022-09-20T05:27:06;11.70;99.90
39255;DHT22;24957;51.386;-2.352;2022-09-20T05:40:02;11.60;99.90
39255;DHT22;24957;51.386;-2.352;2022-09-20T05:48:23;11.40;99.90
39255;DHT22;24957;51.386;-2.352;2022-09-20T06:00:37;11.40;99.90
39255;DHT22;24957;51.386;-2.352;2022-09-20T06:03:28;11.30;99.90
39255;DHT22;24957;51.386;-2.352;2022-09-20T06:06:05;11.30;99.90
39255;DHT22;24957;51.386;-2.352;2022-09-20T06:11:03;11.30;99.90
39255;DHT22;24957;51.386;-2.352;2022-09-20T06:13:44;11.30;99.90
39255;DHT22;24957;51.386;-2.352;2022-09-20T06:16:22;11.50;99.90
39255;DHT22;24957;51.386;-2.352;2022-09-20T06:19:01;11.40;99.90
39255;DHT22;24957;51.386;-2.352;2022-09-20T06:24:23;11.60;99.90
39255;DHT22;24957;51.386;-2.352;2022-09-20T06:26:50;11.70;99.90
39255;DHT22;24957;51.386;-2.352;2022-09-20T06:29:17;11.70;99.90
39255;DHT22;24957;51.386;-2.352;2022-09-20T06:31:44;11.70;99.90
39255;DHT22;24957;51.386;-2.352;2022-09-20T06:34:09;11.70;99.90
39255;DHT22;24957;51.386;-2.352;2022-09-20T06:36:38;11.70;99.90
39255;DHT22;24957;51.386;-2.352;2022-09-20T06:39:27;11.60;99.90
39255;DHT22;24957;51.386;-2.352;2022-09-20T06:42:15;11.70;99.90
39255;DHT22;24957;51.386;-2.352;2022-09-20T06:44:40;11.80;99.90
39255;DHT22;24957;51.386;-2.352;2022-09-20T06:47:11;11.80;99.90
39255;DHT22;24957;51.386;-2.352;2022-09-20T06:49:36;11.90;99.90
39255;DHT22;24957;51.386;-2.352;2022-09-20T06:52:07;12.10;99.90
39255;DHT22;24957;51.386;-2.352;2022-09-20T06:54:34;12.20;99.90
39255;DHT22;24957;51.386;-2.352;2022-09-20T06:57:02;12.40;99.90
39255;DHT22;24957;51.386;-2.352;2022-09-20T06:59:28;12.50;99.90
39255;DHT22;24957;51.386;-2.352;2022-09-20T07:01:54;12.70;99.90
39255;DHT22;24957;51.386;-2.352;2022-09-20T07:04:20;12.80;99.90
39255;DHT22;24957;51.386;-2.352;2022-09-20T07:06:47;12.90;99.90
39255;DHT22;24957;51.386;-2.352;2022-09-20T07:09:13;13.00;99.90
39255;DHT22;24957;51.386;-2.352;2022-09-20T07:11:38;13.20;99.90
39255;DHT22;24957;51.386;-2.352;2022-09-20T07:14:04;13.50;99.90
39255;DHT22;24957;51.386;-2.352;2022-09-20T07:16:32;13.60;99.90
39255;DHT22;24957;51.386;-2.352;2022-09-20T07:18:57;13.80;99.90
39255;DHT22;24957;51.386;-2.352;2022-09-20T07:21:24;14.00;99.90
39255;DHT22;24957;51.386;-2.352;2022-09-20T07:23:49;14.10;99.90
39255;DHT22;24957;51.386;-2.352;2022-09-20T07:26:22;14.10;99.90
39255;DHT22;24957;51.386;-2.352;2022-09-20T07:28:48;14.20;99.90
39255;DHT22;24957;51.386;-2.352;2022-09-20T07:31:14;14.30;99.90
39255;DHT22;24957;51.386;-2.352;2022-09-20T07:33:40;14.30;99.90
39255;DHT22;24957;51.386;-2.352;2022-09-20T07:36:06;14.40;99.90
39255;DHT22;24957;51.386;-2.352;2022-09-20T07:38:31;14.50;99.90
39255;DHT22;24957;51.386;-2.352;2022-09-20T07:40:57;14.40;99.90
39255;DHT22;24957;51.386;-2.352;2022-09-20T07:43:25;14.40;99.90
39255;DHT22;24957;51.386;-2.352;2022-09-20T07:45:51;14.50;99.90
39255;DHT22;24957;51.386;-2.352;2022-09-20T07:48:23;14.60;99.90
39255;DHT22;24957;51.386;-2.352;2022-09-20T07:50:54;14.60;99.90
39255;DHT22;24957;51.386;-2.352;2022-09-20T07:53:20;14.70;99.90
39255;DHT22;24957;51.386;-2.352;2022-09-20T07:58:41;14.90;99.90
39255;DHT22;24957;51.386;-2.352;2022-09-20T08:01:08;14.90;99.90
39255;DHT22;24957;51.386;-2.352;2022-09-20T08:03:34;14.80;99.90
39255;DHT22;24957;51.386;-2.352;2022-09-20T08:06:00;14.90;99.90
39255;DHT22;24957;51.386;-2.352;2022-09-20T08:08:26;15.10;99.90
39255;DHT22;24957;51.386;-2.352;2022-09-20T08:10:59;15.20;99.90
39255;DHT22;24957;51.386;-2.352;2022-09-20T08:13:26;15.30;99.90
39255;DHT22;24957;51.386;-2.352;2022-09-20T08:15:59;15.40;99.90
39255;DHT22;24957;51.386;-2.352;2022-09-20T08:18:24;15.40;99.90
39255;DHT22;24957;51.386;-2.352;2022-09-20T08:20:52;15.50;99.90
39255;DHT22;24957;51.386;-2.352;2022-09-20T08:23:17;15.50;99.90
39255;DHT22;24957;51.386;-2.352;2022-09-20T08:25:43;15.50;99.90
39255;DHT22;24957;51.386;-2.352;2022-09-20T08:28:09;15.60;99.90
39255;DHT22;24957;51.386;-2.352;2022-09-20T08:30:34;15.60;99.90
39255;DHT22;24957;51.386;-2.352;2022-09-20T08:33:02;15.70;99.90
39255;DHT22;24957;51.386;-2.352;2022-09-20T08:35:27;15.80;99.90
39255;DHT22;24957;51.386;-2.352;2022-09-20T08:37:54;15.90;99.90
39255;DHT22;24957;51.386;-2.352;2022-09-20T08:40:19;15.90;99.90
39255;DHT22;24957;51.386;-2.352;2022-09-20T08:42:48;15.80;99.90
39255;DHT22;24957;51.386;-2.352;2022-09-20T08:45:15;15.70;99.90
39255;DHT22;24957;51.386;-2.352;2022-09-20T08:48:01;15.70;99.90
39255;DHT22;24957;51.386;-2.352;2022-09-20T08:50:29;15.70;99.90
39255;DHT22;24957;51.386;-2.352;2022-09-20T08:52:56;15.80;99.90
39255;DHT22;24957;51.386;-2.352;2022-09-20T08:55:23;16.00;99.90
39255;DHT22;24957;51.386;-2.352;2022-09-20T08:57:53;16.40;99.90
39255;DHT22;24957;51.386;-2.352;2022-09-20T09:00:19;16.70;99.90
39255;DHT22;24957;51.386;-2.352;2022-09-20T09:02:45;17.10;99.90
39255;DHT22;24957;51.386;-2.352;2022-09-20T09:05:21;17.50;99.90
39255;DHT22;24957;51.386;-2.352;2022-09-20T09:07:50;17.80;99.90
39255;DHT22;24957;51.386;-2.352;2022-09-20T09:10:16;18.10;99.90
39255;DHT22;24957;51.386;-2.352;2022-09-20T09:12:41;18.50;99.90
39255;DHT22;24957;51.386;-2.352;2022-09-20T09:15:20;18.70;99.90
39255;DHT22;24957;51.386;-2.352;2022-09-20T09:17:47;18.60;99.90
39255;DHT22;24957;51.386;-2.352;2022-09-20T09:22:41;18.50;99.90
39255;DHT22;24957;51.386;-2.352;2022-09-20T09:30:22;18.40;99.90
39255;DHT22;24957;51.386;-2.352;2022-09-20T09:32:48;18.30;99.90
39255;DHT22;24957;51.386;-2.352;2022-09-20T09:35:24;18.40;99.90
39255;DHT22;24957;51.386;-2.352;2022-09-20T09:37:56;18.50;99.90
39255;DHT22;24957;51.386;-2.352;2022-09-20T09:40:23;18.60;99.90
39255;DHT22;24957;51.386;-2.352;2022-09-20T09:42:50;18.70;99.90
39255;DHT22;24957;51.386;-2.352;2022-09-20T09:45:35;18.70;99.90
39255;DHT22;24957;51.386;-2.352;2022-09-20T09:48:16;18.80;99.90
39255;DHT22;24957;51.386;-2.352;2022-09-20T09:50:41;18.80;99.90
39255;DHT22;24957;51.386;-2.352;2022-09-20T09:53:11;18.80;99.90
39255;DHT22;24957;51.386;-2.352;2022-09-20T09:58:15;18.80;99.90
39255;DHT22;24957;51.386;-2.352;2022-09-20T10:00:46;18.80;99.90
39255;DHT22;24957;51.386;-2.352;2022-09-20T10:05:57;18.60;99.90
39255;DHT22;24957;51.386;-2.352;2022-09-20T10:18:50;19.10;99.90
39255;DHT22;24957;51.386;-2.352;2022-09-20T10:21:41;19.30;95.90
39255;DHT22;24957;51.386;-2.352;2022-09-20T10:31:59;19.90;74.90
39255;DHT22;24957;51.386;-2.352;2022-09-20T10:34:35;19.90;78.10
39255;DHT22;24957;51.386;-2.352;2022-09-20T10:37:05;19.90;76.50
39255;DHT22;24957;51.386;-2.352;2022-09-20T10:39:35;19.80;74.90
39255;DHT22;24957;51.386;-2.352;2022-09-20T10:47:34;20.30;69.60
39255;DHT22;24957;51.386;-2.352;2022-09-20T10:57:53;20.20;69.60
39255;DHT22;24957;51.386;-2.352;2022-09-20T11:00:21;19.90;70.90
39255;DHT22;24957;51.386;-2.352;2022-09-20T11:08:01;19.80;70.30
39255;DHT22;24957;51.386;-2.352;2022-09-20T11:10:47;19.90;70.50
39255;DHT22;24957;51.386;-2.352;2022-09-20T11:16:01;19.80;69.10
39255;DHT22;24957;51.386;-2.352;2022-09-20T11:18:33;19.90;68.60
39255;DHT22;24957;51.386;-2.352;2022-09-20T11:21:07;19.90;67.60
39255;DHT22;24957;51.386;-2.352;2022-09-20T11:26:09;19.90;64.60
39255;DHT22;24957;51.386;-2.352;2022-09-20T11:28:39;20.00;65.60
39255;DHT22;24957;51.386;-2.352;2022-09-20T11:36:05;19.80;63.60
39255;DHT22;24957;51.386;-2.352;2022-09-20T11:43:26;19.90;63.00
39255;DHT22;24957;51.386;-2.352;2022-09-20T11:45:55;19.90;63.30
39255;DHT22;24957;51.386;-2.352;2022-09-20T11:48:24;19.80;61.50
39255;DHT22;24957;51.386;-2.352;2022-09-20T11:51:00;19.60;58.70
39255;DHT22;24957;51.386;-2.352;2022-09-20T11:53:39;19.70;59.00
39255;DHT22;24957;51.386;-2.352;2022-09-20T11:56:28;19.60;59.20
39255;DHT22;24957;51.386;-2.352;2022-09-20T11:58:53;19.70;59.40
39255;DHT22;24957;51.386;-2.352;2022-09-20T12:01:22;19.80;60.00
39255;DHT22;24957;51.386;-2.352;2022-09-20T12:03:51;19.70;61.70
39255;DHT22;24957;51.386;-2.352;2022-09-20T12:08:48;19.40;62.90
39255;DHT22;24957;51.386;-2.352;2022-09-20T12:11:14;19.40;63.10
39255;DHT22;24957;51.386;-2.352;2022-09-20T12:13:41;19.40;63.10
39255;DHT22;24957;51.386;-2.352;2022-09-20T12:16:17;19.50;63.40
39255;DHT22;24957;51.386;-2.352;2022-09-20T12:19:00;19.50;60.90
39255;DHT22;24957;51.386;-2.352;2022-09-20T12:21:25;19.50;60.60
39255;DHT22;24957;51.386;-2.352;2022-09-20T12:28:47;19.50;61.70
39255;DHT22;24957;51.386;-2.352;2022-09-20T12:36:30;19.70;60.20
39255;DHT22;24957;51.386;-2.352;2022-09-20T12:38:58;20.10;59.10
39255;DHT22;24957;51.386;-2.352;2022-09-20T12:41:24;20.10;59.70
39255;DHT22;24957;51.386;-2.352;2022-09-20T12:51:58;20.00;59.70
39255;DHT22;24957;51.386;-2.352;2022-09-20T12:54:49;20.30;59.20
39255;DHT22;24957;51.386;-2.352;2022-09-20T12:57:16;20.60;58.30
39255;DHT22;24957;51.386;-2.352;2022-09-20T12:59:43;20.80;58.70
39255;DHT22;24957;51.386;-2.352;2022-09-20T13:05:28;21.10;57.20
39255;DHT22;24957;51.386;-2.352;2022-09-20T13:07:55;21.10;56.60
39255;DHT22;24957;51.386;-2.352;2022-09-20T13:10:28;21.20;57.40
39255;DHT22;24957;51.386;-2.352;2022-09-20T13:12:56;21.20;54.10
39255;DHT22;24957;51.386;-2.352;2022-09-20T13:15:23;21.40;54.30
39255;DHT22;24957;51.386;-2.352;2022-09-20T13:17:49;21.50;51.80
39255;DHT22;24957;51.386;-2.352;2022-09-20T13:20:19;21.50;52.30
39255;DHT22;24957;51.386;-2.352;2022-09-20T13:22:44;21.10;54.10
39255;DHT22;24957;51.386;-2.352;2022-09-20T13:25:16;21.20;54.80
39255;DHT22;24957;51.386;-2.352;2022-09-20T13:30:29;21.70;54.10
39255;DHT22;24957;51.386;-2.352;2022-09-20T13:36:01;21.90;54.10
39255;DHT22;24957;51.386;-2.352;2022-09-20T13:38:28;22.10;53.70
39255;DHT22;24957;51.386;-2.352;2022-09-20T13:41:13;22.40;53.10
39255;DHT22;24957;51.386;-2.352;2022-09-20T13:43:43;22.50;52.70
39255;DHT22;24957;51.386;-2.352;2022-09-20T13:46:11;22.40;52.30
39255;DHT22;24957;51.386;-2.352;2022-09-20T13:48:37;22.40;51.50
39255;DHT22;24957;51.386;-2.352;2022-09-20T13:51:03;22.30;52.30
39255;DHT22;24957;51.386;-2.352;2022-09-20T13:53:39;22.20;52.40
39255;DHT22;24957;51.386;-2.352;2022-09-20T13:56:08;22.20;52.10
39255;DHT22;24957;51.386;-2.352;2022-09-20T13:58:34;22.20;52.40
39255;DHT22;24957;51.386;-2.352;2022-09-20T14:01:02;22.10;53.00
39255;DHT22;24957;51.386;-2.352;2022-09-20T14:03:29;22.10;53.40
39255;DHT22;24957;51.386;-2.352;2022-09-20T14:06:00;22.00;53.10
39255;DHT22;24957;51.386;-2.352;2022-09-20T14:08:27;22.10;52.30
39255;DHT22;24957;51.386;-2.352;2022-09-20T14:11:02;22.20;52.40
39255;DHT22;24957;51.386;-2.352;2022-09-20T14:13:28;22.20;53.00
39255;DHT22;24957;51.386;-2.352;2022-09-20T14:15:56;22.20;52.80
39255;DHT22;24957;51.386;-2.352;2022-09-20T14:18:22;22.30;53.50
39255;DHT22;24957;51.386;-2.352;2022-09-20T14:20:48;22.10;53.60
39255;DHT22;24957;51.386;-2.352;2022-09-20T14:28:51;21.90;53.20
39255;DHT22;24957;51.386;-2.352;2022-09-20T14:31:19;21.60;54.20
39255;DHT22;24957;51.386;-2.352;2022-09-20T14:33:46;21.60;54.50
39255;DHT22;24957;51.386;-2.352;2022-09-20T14:36:14;21.40;54.40
39255;DHT22;24957;51.386;-2.352;2022-09-20T14:38:44;21.50;54.70
39255;DHT22;24957;51.386;-2.352;2022-09-20T14:41:11;21.50;53.80
39255;DHT22;24957;51.386;-2.352;2022-09-20T14:43:37;21.50;53.90
39255;DHT22;24957;51.386;-2.352;2022-09-20T14:46:04;21.20;56.30
39255;DHT22;24957;51.386;-2.352;2022-09-20T14:48:32;21.00;56.70
39255;DHT22;24957;51.386;-2.352;2022-09-20T14:53:51;20.70;60.10
39255;DHT22;24957;51.386;-2.352;2022-09-20T14:56:36;20.70;59.50
39255;DHT22;24957;51.386;-2.352;2022-09-20T14:59:06;20.50;59.60
39255;DHT22;24957;51.386;-2.352;2022-09-20T15:01:44;20.50;60.30
39255;DHT22;24957;51.386;-2.352;2022-09-20T15:04:18;20.60;59.00
39255;DHT22;24957;51.386;-2.352;2022-09-20T15:06:45;20.80;59.00
39255;DHT22;24957;51.386;-2.352;2022-09-20T15:09:11;20.90;59.00
39255;DHT22;24957;51.386;-2.352;2022-09-20T15:11:37;20.90;59.10
39255;DHT22;24957;51.386;-2.352;2022-09-20T15:14:03;20.80;59.90
39255;DHT22;24957;51.386;-2.352;2022-09-20T15:16:28;21.00;57.90
39255;DHT22;24957;51.386;-2.352;2022-09-20T15:18:54;21.20;57.30
39255;DHT22;24957;51.386;-2.352;2022-09-20T15:21:20;21.50;56.60
39255;DHT22;24957;51.386;-2.352;2022-09-20T15:23:46;21.70;56.00
39255;DHT22;24957;51.386;-2.352;2022-09-20T15:26:11;22.00;55.40
39255;DHT22;24957;51.386;-2.352;2022-09-20T15:28:38;22.10;54.60
39255;DHT22;24957;51.386;-2.352;2022-09-20T15:31:04;22.20;53.80
39255;DHT22;24957;51.386;-2.352;2022-09-20T15:33:30;22.40;53.00
39255;DHT22;24957;51.386;-2.352;2022-09-20T15:35:56;22.20;53.90
39255;DHT22;24957;51.386;-2.352;2022-09-20T15:38:22;22.30;53.70
39255;DHT22;24957;51.386;-2.352;2022-09-20T15:40:51;23.00;52.20
39255;DHT22;24957;51.386;-2.352;2022-09-20T15:43:20;23.50;50.30
39255;DHT22;24957;51.386;-2.352;2022-09-20T15:45:52;24.30;49.20
39255;DHT22;24957;51.386;-2.352;2022-09-20T15:48:19;25.10;46.00
39255;DHT22;24957;51.386;-2.352;2022-09-20T15:51:02;25.00;45.90
39255;DHT22;24957;51.386;-2.352;2022-09-20T15:53:28;24.90;45.40
39255;DHT22;24957;51.386;-2.352;2022-09-20T15:55:56;24.40;45.60
39255;DHT22;24957;51.386;-2.352;2022-09-20T15:58:25;24.90;45.50
39255;DHT22;24957;51.386;-2.352;2022-09-20T16:00:51;25.50;44.10
39255;DHT22;24957;51.386;-2.352;2022-09-20T16:03:16;25.70;43.70
39255;DHT22;24957;51.386;-2.352;2022-09-20T16:05:42;25.70;42.70
39255;DHT22;24957;51.386;-2.352;2022-09-20T16:08:07;25.60;42.70
39255;DHT22;24957;51.386;-2.352;2022-09-20T16:10:33;25.20;43.30
39255;DHT22;24957;51.386;-2.352;2022-09-20T16:12:59;25.60;43.50
39255;DHT22;24957;51.386;-2.352;2022-09-20T16:15:24;26.10;42.70
39255;DHT22;24957;51.386;-2.352;2022-09-20T16:17:50;26.20;41.70
39255;DHT22;24957;51.386;-2.352;2022-09-20T16:20:34;25.50;42.50
39255;DHT22;24957;51.386;-2.352;2022-09-20T16:23:00;24.20;43.80
39255;DHT22;24957;51.386;-2.352;2022-09-20T16:25:26;23.40;45.60
39255;DHT22;24957;51.386;-2.352;2022-09-20T16:27:51;22.60;47.60
39255;DHT22;24957;51.386;-2.352;2022-09-20T16:30:17;22.00;49.60
39255;DHT22;24957;51.386;-2.352;2022-09-20T16:32:42;21.70;50.20
39255;DHT22;24957;51.386;-2.352;2022-09-20T16:35:08;21.70;50.50
39255;DHT22;24957;51.386;-2.352;2022-09-20T16:37:33;21.40;51.20
39255;DHT22;24957;51.386;-2.352;2022-09-20T16:40:01;21.30;51.90
39255;DHT22;24957;51.386;-2.352;2022-09-20T16:42:26;21.20;51.30
39255;DHT22;24957;51.386;-2.352;2022-09-20T16:44:52;21.10;52.40
39255;DHT22;24957;51.386;-2.352;2022-09-20T16:47:17;21.20;52.90
39255;DHT22;24957;51.386;-2.352;2022-09-20T16:49:49;21.60;52.60
39255;DHT22;24957;51.386;-2.352;2022-09-20T16:52:15;22.20;51.40
39255;DHT22;24957;51.386;-2.352;2022-09-20T16:54:41;22.40;49.40
39255;DHT22;24957;51.386;-2.352;2022-09-20T16:57:07;22.50;47.80
39255;DHT22;24957;51.386;-2.352;2022-09-20T16:59:33;22.30;48.40
39255;DHT22;24957;51.386;-2.352;2022-09-20T17:01:59;22.10;50.30
39255;DHT22;24957;51.386;-2.352;2022-09-20T17:04:24;22.30;49.20
39255;DHT22;24957;51.386;-2.352;2022-09-20T17:06:50;22.40;49.70
39255;DHT22;24957;51.386;-2.352;2022-09-20T17:09:16;22.30;49.80
39255;DHT22;24957;51.386;-2.352;2022-09-20T17:11:42;22.50;49.60
39255;DHT22;24957;51.386;-2.352;2022-09-20T17:14:12;22.30;49.20
39255;DHT22;24957;51.386;-2.352;2022-09-20T17:16:38;22.10;50.40
39255;DHT22;24957;51.386;-2.352;2022-09-20T17:19:07;21.80;51.40
39255;DHT22;24957;51.386;-2.352;2022-09-20T17:21:34;21.60;52.10
39255;DHT22;24957;51.386;-2.352;2022-09-20T17:24:00;21.50;51.20
39255;DHT22;24957;51.386;-2.352;2022-09-20T17:26:31;21.20;52.00
39255;DHT22;24957;51.386;-2.352;2022-09-20T17:29:02;21.00;53.30
39255;DHT22;24957;51.386;-2.352;2022-09-20T17:31:29;20.80;55.30
39255;DHT22;24957;51.386;-2.352;2022-09-20T17:33:56;20.70;54.30
39255;DHT22;24957;51.386;-2.352;2022-09-20T17:36:25;20.60;55.20
39255;DHT22;24957;51.386;-2.352;2022-09-20T17:38:52;20.40;56.70
39255;DHT22;24957;51.386;-2.352;2022-09-20T17:41:18;20.30;57.00
39255;DHT22;24957;51.386;-2.352;2022-09-20T17:43:44;20.10;58.20
39255;DHT22;24957;51.386;-2.352;2022-09-20T17:46:17;19.90;59.30
39255;DHT22;24957;51.386;-2.352;2022-09-20T17:48:47;19.80;59.70
39255;DHT22;24957;51.386;-2.352;2022-09-20T17:51:16;19.70;60.60
39255;DHT22;24957;51.386;-2.352;2022-09-20T17:53:42;19.50;61.40
39255;DHT22;24957;51.386;-2.352;2022-09-20T17:56:08;19.50;62.00
39255;DHT22;24957;51.386;-2.352;2022-09-20T17:58:35;19.30;63.20
39255;DHT22;24957;51.386;-2.352;2022-09-20T18:01:02;19.30;64.00
39255;DHT22;24957;51.386;-2.352;2022-09-20T18:03:29;19.30;64.10
39255;DHT22;24957;51.386;-2.352;2022-09-20T18:05:57;19.20;64.80
39255;DHT22;24957;51.386;-2.352;2022-09-20T18:08:23;19.20;65.70
39255;DHT22;24957;51.386;-2.352;2022-09-20T18:10:52;19.20;66.30
39255;DHT22;24957;51.386;-2.352;2022-09-20T18:13:18;19.20;66.60
39255;DHT22;24957;51.386;-2.352;2022-09-20T18:15:44;19.20;67.50
39255;DHT22;24957;51.386;-2.352;2022-09-20T18:18:10;19.10;69.10
39255;DHT22;24957;51.386;-2.352;2022-09-20T18:20:36;19.10;70.80
39255;DHT22;24957;51.386;-2.352;2022-09-20T18:23:02;18.90;72.00
39255;DHT22;24957;51.386;-2.352;2022-09-20T18:25:28;18.70;74.00
39255;DHT22;24957;51.386;-2.352;2022-09-20T18:27:53;18.60;74.70
39255;DHT22;24957;51.386;-2.352;2022-09-20T18:30:19;18.50;75.80
39255;DHT22;24957;51.386;-2.352;2022-09-20T18:32:48;18.30;77.60
39255;DHT22;24957;51.386;-2.352;2022-09-20T18:35:14;18.20;77.90
39255;DHT22;24957;51.386;-2.352;2022-09-20T18:37:40;18.10;79.60
39255;DHT22;24957;51.386;-2.352;2022-09-20T18:40:05;17.90;82.00
39255;DHT22;24957;51.386;-2.352;2022-09-20T18:42:32;17.90;84.40
39255;DHT22;24957;51.386;-2.352;2022-09-20T18:44:57;17.90;85.40
39255;DHT22;24957;51.386;-2.352;2022-09-20T18:47:23;17.80;86.00
39255;DHT22;24957;51.386;-2.352;2022-09-20T18:49:49;17.60;87.30
39255;DHT22;24957;51.386;-2.352;2022-09-20T18:52:14;17.50;88.70
39255;DHT22;24957;51.386;-2.352;2022-09-20T18:54:43;17.40;90.00
39255;DHT22;24957;51.386;-2.352;2022-09-20T18:57:08;17.40;90.70
39255;DHT22;24957;51.386;-2.352;2022-09-20T18:59:34;17.40;91.50
39255;DHT22;24957;51.386;-2.352;2022-09-20T19:02:06;17.20;91.90
39255;DHT22;24957;51.386;-2.352;2022-09-20T19:25:49;16.20;99.90
39255;DHT22;24957;51.386;-2.352;2022-09-20T19:28:16;16.10;99.90
39255;DHT22;24957;51.386;-2.352;2022-09-20T19:30:42;16.00;99.90
39255;DHT22;24957;51.386;-2.352;2022-09-20T19:33:16;15.90;99.90
39255;DHT22;24957;51.386;-2.352;2022-09-20T19:35:43;15.90;99.90
39255;DHT22;24957;51.386;-2.352;2022-09-20T19:38:28;15.80;99.90
39255;DHT22;24957;51.386;-2.352;2022-09-20T19:43:40;15.60;99.90
39255;DHT22;24957;51.386;-2.352;2022-09-20T19:48:38;15.60;99.90
39255;DHT22;24957;51.386;-2.352;2022-09-20T19:51:05;15.50;99.90
39255;DHT22;24957;51.386;-2.352;2022-09-20T19:53:32;15.40;99.90
39255;DHT22;24957;51.386;-2.352;2022-09-20T19:56:06;15.30;99.90
39255;DHT22;24957;51.386;-2.352;2022-09-20T19:58:38;15.20;99.90
39255;DHT22;24957;51.386;-2.352;2022-09-20T20:01:06;15.20;99.90
39255;DHT22;24957;51.386;-2.352;2022-09-20T20:03:33;15.20;99.90
39255;DHT22;24957;51.386;-2.352;2022-09-20T20:06:00;15.10;99.90
39255;DHT22;24957;51.386;-2.352;2022-09-20T20:08:31;15.10;99.90
39255;DHT22;24957;51.386;-2.352;2022-09-20T20:11:04;15.10;99.90
39255;DHT22;24957;51.386;-2.352;2022-09-20T20:16:30;15.00;99.90
39255;DHT22;24957;51.386;-2.352;2022-09-20T20:26:31;15.20;99.90
39255;DHT22;24957;51.386;-2.352;2022-09-20T20:28:57;15.20;99.90
39255;DHT22;24957;51.386;-2.352;2022-09-20T20:31:22;15.20;99.90
39255;DHT22;24957;51.386;-2.352;2022-09-20T20:33:48;15.30;99.90
39255;DHT22;24957;51.386;-2.352;2022-09-20T20:36:15;15.30;99.90
39255;DHT22;24957;51.386;-2.352;2022-09-20T20:38:41;15.40;99.90
39255;DHT22;24957;51.386;-2.352;2022-09-20T20:41:08;15.40;99.90
39255;DHT22;24957;51.386;-2.352;2022-09-20T20:43:36;15.30;99.90